sensor_id;sensor_type;location;lat;lon;timestamp;temperature;humidity
20831;DHT22;10576;53.556;9.868;2023-09-08T00:00:34;18.50;99.90
20831;DHT22;10576;53.556;9.868;2023-09-08T00:03:00;18.40;99.90
20831;DHT22;10576;53.556;9.868;2023-09-08T00:05:25;18.40;99.90
20831;DHT22;10576;53.556;9.868;2023-09-08T00:07:51;18.40;99.90
20831;DHT22;10576;53.556;9.868;2023-09-08T00:10:16;18.40;99.90
20831;DHT22;10576;53.556;9.868;2023-09-08T00:12:42;18.40;99.90
20831;DHT22;10576;53.556;9.868;2023-09-08T00:15:08;18.40;99.90
20831;DHT22;10576;53.556;9.868;2023-09-08T00:17:33;18.30;99.90
20831;DHT22;10576;53.556;9.868;2023-09-08T00:19:59;18.30;99.90
20831;DHT22;10576;53.556;9.868;2023-09-08T00:22:24;18.30;99.90
20831;DHT22;10576;53.556;9.868;2023-09-08T00:24:50;18.30;99.90
20831;DHT22;10576;53.556;9.868;2023-09-08T00:27:15;18.30;99.90
20831;DHT22;10576;53.556;9.868;2023-09-08T00:29:41;18.30;99.90
20831;DHT22;10576;53.556;9.868;2023-09-08T00:32:06;18.30;99.90
20831;DHT22;10576;53.556;9.868;2023-09-08T00:34:32;18.20;99.90
20831;DHT22;10576;53.556;9.868;2023-09-08T00:36:57;18.20;99.90
20831;DHT22;10576;53.556;9.868;2023-09-08T00:39:23;18.20;99.90
20831;DHT22;10576;53.556;9.868;2023-09-08T00:41:48;18.20;99.90
20831;DHT22;10576;53.556;9.868;2023-09-08T00:44:14;18.20;99.90
20831;DHT22;10576;53.556;9.868;2023-09-08T00:46:40;18.20;99.90
20831;DHT22;10576;53.556;9.868;2023-09-08T00:49:05;18.20;99.90
20831;DHT22;10576;53.556;9.868;2023-09-08T00:51:31;18.10;99.90
20831;DHT22;10576;53.556;9.868;2023-09-08T00:53:57;18.20;99.90
20831;DHT22;10576;53.556;9.868;2023-09-08T00:56:23;18.10;99.90
20831;DHT22;10576;53.556;9.868;2023-09-08T00:58:48;18.10;99.90
20831;DHT22;10576;53.556;9.868;2023-09-08T01:01:14;18.10;99.90
20831;DHT22;10576;53.556;9.868;2023-09-08T01:03:39;18.10;99.90
20831;DHT22;10576;53.556;9.868;2023-09-08T01:06:05;18.10;99.90
20831;DHT22;10576;53.556;9.868;2023-09-08T01:08:31;18.10;99.90
20831;DHT22;10576;53.556;9.868;2023-09-08T01:10:56;18.10;99.90
20831;DHT22;10576;53.556;9.868;2023-09-08T01:13:22;18.20;99.90
20831;DHT22;10576;53.556;9.868;2023-09-08T01:15:48;18.10;99.90
20831;DHT22;10576;53.556;9.868;2023-09-08T01:18:13;18.00;99.90
20831;DHT22;10576;53.556;9.868;2023-09-08T01:20:55;18.00;99.90
20831;DHT22;10576;53.556;9.868;2023-09-08T01:26:08;18.00;99.90
20831;DHT22;10576;53.556;9.868;2023-09-08T01:28:34;17.90;99.90
20831;DHT22;10576;53.556;9.868;2023-09-08T01:31:01;17.90;99.90
20831;DHT22;10576;53.556;9.868;2023-09-08T01:33:26;17.90;99.90
20831;DHT22;10576;53.556;9.868;2023-09-08T01:35:52;17.80;99.90
20831;DHT22;10576;53.556;9.868;2023-09-08T01:38:18;17.80;99.90
20831;DHT22;10576;53.556;9.868;2023-09-08T01:40:43;17.80;99.90
20831;DHT22;10576;53.556;9.868;2023-09-08T01:43:09;17.70;99.90
20831;DHT22;10576;53.556;9.868;2023-09-08T01:45:34;17.70;99.90
20831;DHT22;10576;53.556;9.868;2023-09-08T01:48:00;17.70;99.90
20831;DHT22;10576;53.556;9.868;2023-09-08T01:50:25;17.70;99.90
20831;DHT22;10576;53.556;9.868;2023-09-08T01:52:51;17.60;99.90
20831;DHT22;10576;53.556;9.868;2023-09-08T01:55:16;17.70;99.90
20831;DHT22;10576;53.556;9.868;2023-09-08T01:57:42;17.60;99.90
20831;DHT22;10576;53.556;9.868;2023-09-08T02:00:09;17.60;99.90
20831;DHT22;10576;53.556;9.868;2023-09-08T02:02:34;17.60;99.90
20831;DHT22;10576;53.556;9.868;2023-09-08T02:05:00;17.60;99.90
20831;DHT22;10576;53.556;9.868;2023-09-08T02:07:25;17.50;99.90
20831;DHT22;10576;53.556;9.868;2023-09-08T02:09:51;17.50;99.90
20831;DHT22;10576;53.556;9.868;2023-09-08T02:12:16;17.40;99.90
20831;DHT22;10576;53.556;9.868;2023-09-08T02:14:42;17.30;99.90
20831;DHT22;10576;53.556;9.868;2023-09-08T02:17:07;17.30;99.90
20831;DHT22;10576;53.556;9.868;2023-09-08T02:19:33;17.20;99.90
20831;DHT22;10576;53.556;9.868;2023-09-08T02:21:58;17.20;99.90
20831;DHT22;10576;53.556;9.868;2023-09-08T02:24:24;17.20;99.90
20831;DHT22;10576;53.556;9.868;2023-09-08T02:26:49;17.10;99.90
20831;DHT22;10576;53.556;9.868;2023-09-08T02:29:15;17.00;99.90
20831;DHT22;10576;53.556;9.868;2023-09-08T02:31:40;17.00;99.90
20831;DHT22;10576;53.556;9.868;2023-09-08T02:34:06;17.00;99.90
20831;DHT22;10576;53.556;9.868;2023-09-08T02:36:31;16.90;99.90
20831;DHT22;10576;53.556;9.868;2023-09-08T02:38:57;16.80;99.90
20831;DHT22;10576;53.556;9.868;2023-09-08T02:41:23;16.70;99.90
20831;DHT22;10576;53.556;9.868;2023-09-08T02:43:48;16.70;99.90
20831;DHT22;10576;53.556;9.868;2023-09-08T02:46:14;16.70;99.90
20831;DHT22;10576;53.556;9.868;2023-09-08T02:48:40;16.60;99.90
20831;DHT22;10576;53.556;9.868;2023-09-08T02:51:05;16.60;99.90
20831;DHT22;10576;53.556;9.868;2023-09-08T02:53:31;16.50;99.90
20831;DHT22;10576;53.556;9.868;2023-09-08T02:55:57;16.50;99.90
20831;DHT22;10576;53.556;9.868;2023-09-08T02:58:23;16.40;99.90
20831;DHT22;10576;53.556;9.868;2023-09-08T03:00:48;16.30;99.90
20831;DHT22;10576;53.556;9.868;2023-09-08T03:03:14;16.30;99.90
20831;DHT22;10576;53.556;9.868;2023-09-08T03:05:40;16.30;99.90
20831;DHT22;10576;53.556;9.868;2023-09-08T03:08:05;16.20;99.90
20831;DHT22;10576;53.556;9.868;2023-09-08T03:10:31;16.20;99.90
20831;DHT22;10576;53.556;9.868;2023-09-08T03:12:59;16.10;99.90
20831;DHT22;10576;53.556;9.868;2023-09-08T03:15:25;16.10;99.90
20831;DHT22;10576;53.556;9.868;2023-09-08T03:17:53;16.00;99.90
20831;DHT22;10576;53.556;9.868;2023-09-08T03:20:19;16.00;99.90
20831;DHT22;10576;53.556;9.868;2023-09-08T03:22:45;16.00;99.90
20831;DHT22;10576;53.556;9.868;2023-09-08T03:25:10;15.90;99.90
20831;DHT22;10576;53.556;9.868;2023-09-08T03:27:36;15.90;99.90
20831;DHT22;10576;53.556;9.868;2023-09-08T03:30:01;15.80;99.90
20831;DHT22;10576;53.556;9.868;2023-09-08T03:32:28;15.80;99.90
20831;DHT22;10576;53.556;9.868;2023-09-08T03:34:54;15.80;99.90
20831;DHT22;10576;53.556;9.868;2023-09-08T03:37:19;15.70;99.90
20831;DHT22;10576;53.556;9.868;2023-09-08T03:39:45;15.70;99.90
20831;DHT22;10576;53.556;9.868;2023-09-08T03:42:10;15.60;99.90
20831;DHT22;10576;53.556;9.868;2023-09-08T03:44:36;15.60;99.90
20831;DHT22;10576;53.556;9.868;2023-09-08T03:47:01;15.60;99.90
20831;DHT22;10576;53.556;9.868;2023-09-08T03:49:28;15.50;99.90
20831;DHT22;10576;53.556;9.868;2023-09-08T03:51:53;15.50;99.90
20831;DHT22;10576;53.556;9.868;2023-09-08T03:54:19;15.50;99.90
20831;DHT22;10576;53.556;9.868;2023-09-08T03:56:44;15.50;99.90
20831;DHT22;10576;53.556;9.868;2023-09-08T03:59:10;15.40;99.90
20831;DHT22;10576;53.556;9.868;2023-09-08T04:01:35;15.40;99.90
20831;DHT22;10576;53.556;9.868;2023-09-08T04:04:01;15.40;99.90
20831;DHT22;10576;53.556;9.868;2023-09-08T04:06:26;15.40;99.90
20831;DHT22;10576;53.556;9.868;2023-09-08T04:08:53;15.30;99.90
20831;DHT22;10576;53.556;9.868;2023-09-08T04:11:19;15.30;99.90
20831;DHT22;10576;53.556;9.868;2023-09-08T04:13:44;15.30;99.90
20831;DHT22;10576;53.556;9.868;2023-09-08T04:16:10;15.30;99.90
20831;DHT22;10576;53.556;9.868;2023-09-08T04:18:35;15.20;99.90
20831;DHT22;10576;53.556;9.868;2023-09-08T04:21:01;15.20;99.90
20831;DHT22;10576;53.556;9.868;2023-09-08T04:23:26;15.30;99.90
20831;DHT22;10576;53.556;9.868;2023-09-08T04:25:52;15.20;99.90
20831;DHT22;10576;53.556;9.868;2023-09-08T04:28:17;15.20;99.90
20831;DHT22;10576;53.556;9.868;2023-09-08T04:30:43;15.20;99.90
20831;DHT22;10576;53.556;9.868;2023-09-08T04:33:08;15.30;99.90
20831;DHT22;10576;53.556;9.868;2023-09-08T04:35:34;15.30;99.90
20831;DHT22;10576;53.556;9.868;2023-09-08T04:37:59;15.30;99.90
20831;DHT22;10576;53.556;9.868;2023-09-08T04:40:25;15.30;99.90
20831;DHT22;10576;53.556;9.868;2023-09-08T04:42:50;15.30;99.90
20831;DHT22;10576;53.556;9.868;2023-09-08T04:45:16;15.40;99.90
20831;DHT22;10576;53.556;9.868;2023-09-08T04:47:41;15.40;99.90
20831;DHT22;10576;53.556;9.868;2023-09-08T04:50:07;15.50;99.90
20831;DHT22;10576;53.556;9.868;2023-09-08T04:52:33;15.50;99.90
20831;DHT22;10576;53.556;9.868;2023-09-08T04:54:58;15.50;99.90
20831;DHT22;10576;53.556;9.868;2023-09-08T04:57:24;15.60;99.90
20831;DHT22;10576;53.556;9.868;2023-09-08T04:59:49;15.60;99.90
20831;DHT22;10576;53.556;9.868;2023-09-08T05:02:15;15.60;99.90
20831;DHT22;10576;53.556;9.868;2023-09-08T05:04:40;15.60;99.90
20831;DHT22;10576;53.556;9.868;2023-09-08T05:07:06;15.70;99.90
20831;DHT22;10576;53.556;9.868;2023-09-08T05:09:31;15.80;99.90
20831;DHT22;10576;53.556;9.868;2023-09-08T05:11:58;15.80;99.90
20831;DHT22;10576;53.556;9.868;2023-09-08T05:14:25;15.90;99.90
20831;DHT22;10576;53.556;9.868;2023-09-08T05:16:50;15.90;99.90
20831;DHT22;10576;53.556;9.868;2023-09-08T05:19:20;16.00;99.90
20831;DHT22;10576;53.556;9.868;2023-09-08T05:21:46;16.00;99.90
20831;DHT22;10576;53.556;9.868;2023-09-08T05:24:12;16.10;99.90
20831;DHT22;10576;53.556;9.868;2023-09-08T05:26:37;16.20;99.90
20831;DHT22;10576;53.556;9.868;2023-09-08T05:29:04;16.20;99.90
20831;DHT22;10576;53.556;9.868;2023-09-08T05:31:29;16.20;99.90
20831;DHT22;10576;53.556;9.868;2023-09-08T05:33:55;16.20;99.90
20831;DHT22;10576;53.556;9.868;2023-09-08T05:36:20;16.30;99.90
20831;DHT22;10576;53.556;9.868;2023-09-08T05:38:46;16.30;99.90
20831;DHT22;10576;53.556;9.868;2023-09-08T05:41:11;16.40;99.90
20831;DHT22;10576;53.556;9.868;2023-09-08T05:43:37;16.40;99.90
20831;DHT22;10576;53.556;9.868;2023-09-08T05:46:02;16.50;99.90
20831;DHT22;10576;53.556;9.868;2023-09-08T05:48:29;16.50;99.90
20831;DHT22;10576;53.556;9.868;2023-09-08T05:50:55;16.50;99.90
20831;DHT22;10576;53.556;9.868;2023-09-08T05:53:20;16.60;99.90
20831;DHT22;10576;53.556;9.868;2023-09-08T05:55:46;16.60;99.90
20831;DHT22;10576;53.556;9.868;2023-09-08T05:58:11;16.60;99.90
20831;DHT22;10576;53.556;9.868;2023-09-08T06:00:37;16.80;99.90
20831;DHT22;10576;53.556;9.868;2023-09-08T06:03:02;16.90;99.90
20831;DHT22;10576;53.556;9.868;2023-09-08T06:05:28;16.90;99.90
20831;DHT22;10576;53.556;9.868;2023-09-08T06:07:54;16.90;99.90
20831;DHT22;10576;53.556;9.868;2023-09-08T06:10:19;16.90;99.90
20831;DHT22;10576;53.556;9.868;2023-09-08T06:12:45;17.00;99.90
20831;DHT22;10576;53.556;9.868;2023-09-08T06:15:10;16.90;99.90
20831;DHT22;10576;53.556;9.868;2023-09-08T06:17:36;17.00;99.90
20831;DHT22;10576;53.556;9.868;2023-09-08T06:20:02;17.00;99.90
20831;DHT22;10576;53.556;9.868;2023-09-08T06:22:27;17.00;99.90
20831;DHT22;10576;53.556;9.868;2023-09-08T06:24:53;17.00;99.90
20831;DHT22;10576;53.556;9.868;2023-09-08T06:27:18;17.10;99.90
20831;DHT22;10576;53.556;9.868;2023-09-08T06:29:44;17.20;99.90
20831;DHT22;10576;53.556;9.868;2023-09-08T06:32:10;16.80;99.90
20831;DHT22;10576;53.556;9.868;2023-09-08T06:34:35;17.20;99.90
20831;DHT22;10576;53.556;9.868;2023-09-08T06:37:01;16.60;99.90
20831;DHT22;10576;53.556;9.868;2023-09-08T06:39:27;17.30;99.90
20831;DHT22;10576;53.556;9.868;2023-09-08T06:41:52;17.30;99.90
20831;DHT22;10576;53.556;9.868;2023-09-08T06:44:19;17.40;99.90
20831;DHT22;10576;53.556;9.868;2023-09-08T06:46:45;17.40;99.90
20831;DHT22;10576;53.556;9.868;2023-09-08T06:49:11;17.50;99.90
20831;DHT22;10576;53.556;9.868;2023-09-08T06:51:36;17.60;99.90
20831;DHT22;10576;53.556;9.868;2023-09-08T06:54:02;17.70;99.90
20831;DHT22;10576;53.556;9.868;2023-09-08T06:56:28;17.80;99.90
20831;DHT22;10576;53.556;9.868;2023-09-08T06:58:54;17.90;99.90
20831;DHT22;10576;53.556;9.868;2023-09-08T07:01:19;18.00;99.90
20831;DHT22;10576;53.556;9.868;2023-09-08T07:03:45;18.10;99.90
20831;DHT22;10576;53.556;9.868;2023-09-08T07:06:10;18.20;99.90
20831;DHT22;10576;53.556;9.868;2023-09-08T07:08:36;18.30;99.90
20831;DHT22;10576;53.556;9.868;2023-09-08T07:11:01;18.30;99.90
20831;DHT22;10576;53.556;9.868;2023-09-08T07:13:27;18.50;99.90
20831;DHT22;10576;53.556;9.868;2023-09-08T07:15:52;18.50;99.90
20831;DHT22;10576;53.556;9.868;2023-09-08T07:18:18;18.60;99.90
20831;DHT22;10576;53.556;9.868;2023-09-08T07:20:47;18.60;99.90
20831;DHT22;10576;53.556;9.868;2023-09-08T07:23:13;18.70;99.90
20831;DHT22;10576;53.556;9.868;2023-09-08T07:25:39;18.70;99.90
20831;DHT22;10576;53.556;9.868;2023-09-08T07:28:04;18.80;99.90
20831;DHT22;10576;53.556;9.868;2023-09-08T07:30:31;18.80;99.90
20831;DHT22;10576;53.556;9.868;2023-09-08T07:32:57;18.90;99.90
20831;DHT22;10576;53.556;9.868;2023-09-08T07:35:23;19.10;99.90
20831;DHT22;10576;53.556;9.868;2023-09-08T07:37:49;19.20;99.90
20831;DHT22;10576;53.556;9.868;2023-09-08T07:40:15;19.20;99.90
20831;DHT22;10576;53.556;9.868;2023-09-08T07:42:40;19.30;99.90
20831;DHT22;10576;53.556;9.868;2023-09-08T07:45:06;19.20;99.90
20831;DHT22;10576;53.556;9.868;2023-09-08T07:47:32;19.30;99.90
20831;DHT22;10576;53.556;9.868;2023-09-08T07:52:42;19.50;99.90
20831;DHT22;10576;53.556;9.868;2023-09-08T07:55:07;19.70;99.90
20831;DHT22;10576;53.556;9.868;2023-09-08T07:57:32;19.80;99.90
20831;DHT22;10576;53.556;9.868;2023-09-08T07:59:58;19.90;99.90
20831;DHT22;10576;53.556;9.868;2023-09-08T08:02:23;20.10;99.90
20831;DHT22;10576;53.556;9.868;2023-09-08T08:04:49;20.40;99.90
20831;DHT22;10576;53.556;9.868;2023-09-08T08:07:14;20.60;99.90
20831;DHT22;10576;53.556;9.868;2023-09-08T08:09:40;20.70;99.90
20831;DHT22;10576;53.556;9.868;2023-09-08T08:12:05;20.90;99.90
20831;DHT22;10576;53.556;9.868;2023-09-08T08:14:31;21.20;99.90
20831;DHT22;10576;53.556;9.868;2023-09-08T08:16:56;21.40;99.90
20831;DHT22;10576;53.556;9.868;2023-09-08T08:19:22;21.60;99.90
20831;DHT22;10576;53.556;9.868;2023-09-08T08:21:47;21.80;99.90
20831;DHT22;10576;53.556;9.868;2023-09-08T08:24:13;21.90;99.90
20831;DHT22;10576;53.556;9.868;2023-09-08T08:26:38;22.10;99.90
20831;DHT22;10576;53.556;9.868;2023-09-08T08:29:04;22.10;99.90
20831;DHT22;10576;53.556;9.868;2023-09-08T08:31:29;22.20;99.90
20831;DHT22;10576;53.556;9.868;2023-09-08T08:33:55;22.30;99.90
20831;DHT22;10576;53.556;9.868;2023-09-08T08:36:20;22.50;99.90
20831;DHT22;10576;53.556;9.868;2023-09-08T08:38:46;22.60;99.90
20831;DHT22;10576;53.556;9.868;2023-09-08T08:41:11;22.60;99.90
20831;DHT22;10576;53.556;9.868;2023-09-08T08:43:37;22.70;99.90
20831;DHT22;10576;53.556;9.868;2023-09-08T08:46:03;22.80;99.90
20831;DHT22;10576;53.556;9.868;2023-09-08T08:48:29;22.90;99.90
20831;DHT22;10576;53.556;9.868;2023-09-08T08:50:56;22.80;99.90
20831;DHT22;10576;53.556;9.868;2023-09-08T08:53:21;22.90;99.90
20831;DHT22;10576;53.556;9.868;2023-09-08T08:55:47;23.00;99.90
20831;DHT22;10576;53.556;9.868;2023-09-08T08:58:14;23.00;99.90
20831;DHT22;10576;53.556;9.868;2023-09-08T09:00:40;23.20;99.90
20831;DHT22;10576;53.556;9.868;2023-09-08T09:03:06;23.30;99.90
20831;DHT22;10576;53.556;9.868;2023-09-08T09:05:32;23.30;99.90
20831;DHT22;10576;53.556;9.868;2023-09-08T09:07:58;23.30;99.90
20831;DHT22;10576;53.556;9.868;2023-09-08T09:10:23;23.40;99.90
20831;DHT22;10576;53.556;9.868;2023-09-08T09:12:49;23.30;99.90
20831;DHT22;10576;53.556;9.868;2023-09-08T09:15:14;23.30;99.90
20831;DHT22;10576;53.556;9.868;2023-09-08T09:17:41;23.50;99.90
20831;DHT22;10576;53.556;9.868;2023-09-08T09:20:17;23.50;99.90
20831;DHT22;10576;53.556;9.868;2023-09-08T09:22:43;23.60;99.90
20831;DHT22;10576;53.556;9.868;2023-09-08T09:25:09;23.70;99.90
20831;DHT22;10576;53.556;9.868;2023-09-08T09:27:35;23.70;99.90
20831;DHT22;10576;53.556;9.868;2023-09-08T09:30:03;23.70;99.90
20831;DHT22;10576;53.556;9.868;2023-09-08T09:32:29;23.90;99.90
20831;DHT22;10576;53.556;9.868;2023-09-08T09:34:56;24.10;99.90
20831;DHT22;10576;53.556;9.868;2023-09-08T09:37:22;24.20;99.90
20831;DHT22;10576;53.556;9.868;2023-09-08T09:39:52;24.30;99.90
20831;DHT22;10576;53.556;9.868;2023-09-08T09:42:18;24.40;99.90
20831;DHT22;10576;53.556;9.868;2023-09-08T09:44:43;24.50;99.90
20831;DHT22;10576;53.556;9.868;2023-09-08T09:47:09;24.60;99.90
20831;DHT22;10576;53.556;9.868;2023-09-08T09:49:44;24.70;99.90
20831;DHT22;10576;53.556;9.868;2023-09-08T09:52:14;24.80;99.90
20831;DHT22;10576;53.556;9.868;2023-09-08T09:54:40;24.90;99.90
20831;DHT22;10576;53.556;9.868;2023-09-08T09:57:06;25.00;99.90
20831;DHT22;10576;53.556;9.868;2023-09-08T09:59:32;25.10;99.90
20831;DHT22;10576;53.556;9.868;2023-09-08T10:01:58;25.10;99.90
20831;DHT22;10576;53.556;9.868;2023-09-08T10:04:24;25.30;99.90
20831;DHT22;10576;53.556;9.868;2023-09-08T10:06:50;25.50;99.90
20831;DHT22;10576;53.556;9.868;2023-09-08T10:09:17;25.50;99.90
20831;DHT22;10576;53.556;9.868;2023-09-08T10:11:45;25.60;99.90
20831;DHT22;10576;53.556;9.868;2023-09-08T10:14:12;25.80;99.90
20831;DHT22;10576;53.556;9.868;2023-09-08T10:16:38;25.90;99.90
20831;DHT22;10576;53.556;9.868;2023-09-08T10:19:06;25.90;99.90
20831;DHT22;10576;53.556;9.868;2023-09-08T10:21:32;26.10;99.90
20831;DHT22;10576;53.556;9.868;2023-09-08T10:24:00;26.10;99.90
20831;DHT22;10576;53.556;9.868;2023-09-08T10:26:30;26.20;99.90
20831;DHT22;10576;53.556;9.868;2023-09-08T10:28:57;26.30;99.90
20831;DHT22;10576;53.556;9.868;2023-09-08T10:31:24;26.40;99.90
20831;DHT22;10576;53.556;9.868;2023-09-08T10:33:50;26.60;99.90
20831;DHT22;10576;53.556;9.868;2023-09-08T10:36:16;26.00;99.90
20831;DHT22;10576;53.556;9.868;2023-09-08T10:38:41;26.60;99.90
20831;DHT22;10576;53.556;9.868;2023-09-08T10:43:45;26.90;99.90
20831;DHT22;10576;53.556;9.868;2023-09-08T10:46:10;26.90;99.90
20831;DHT22;10576;53.556;9.868;2023-09-08T10:48:42;27.00;99.90
20831;DHT22;10576;53.556;9.868;2023-09-08T10:51:12;27.30;99.90
20831;DHT22;10576;53.556;9.868;2023-09-08T10:53:38;27.30;99.90
20831;DHT22;10576;53.556;9.868;2023-09-08T10:56:04;27.40;99.90
20831;DHT22;10576;53.556;9.868;2023-09-08T10:58:30;27.50;99.90
20831;DHT22;10576;53.556;9.868;2023-09-08T11:01:01;27.50;99.90
20831;DHT22;10576;53.556;9.868;2023-09-08T11:03:28;27.60;99.90
20831;DHT22;10576;53.556;9.868;2023-09-08T11:05:54;27.80;99.90
20831;DHT22;10576;53.556;9.868;2023-09-08T11:08:19;27.90;99.90
20831;DHT22;10576;53.556;9.868;2023-09-08T11:10:45;27.80;99.90
20831;DHT22;10576;53.556;9.868;2023-09-08T11:13:10;27.80;99.90
20831;DHT22;10576;53.556;9.868;2023-09-08T11:15:36;27.70;99.90
20831;DHT22;10576;53.556;9.868;2023-09-08T11:18:05;27.80;99.90
20831;DHT22;10576;53.556;9.868;2023-09-08T11:20:31;27.70;99.90
20831;DHT22;10576;53.556;9.868;2023-09-08T11:22:57;27.70;99.90
20831;DHT22;10576;53.556;9.868;2023-09-08T11:25:23;28.00;99.90
20831;DHT22;10576;53.556;9.868;2023-09-08T11:27:48;28.00;99.90
20831;DHT22;10576;53.556;9.868;2023-09-08T11:30:15;27.90;99.90
20831;DHT22;10576;53.556;9.868;2023-09-08T11:32:41;28.00;99.90
20831;DHT22;10576;53.556;9.868;2023-09-08T11:35:07;28.10;99.90
20831;DHT22;10576;53.556;9.868;2023-09-08T11:37:37;28.10;99.90
20831;DHT22;10576;53.556;9.868;2023-09-08T11:40:07;28.20;99.90
20831;DHT22;10576;53.556;9.868;2023-09-08T11:42:40;28.10;99.90
20831;DHT22;10576;53.556;9.868;2023-09-08T11:45:15;28.20;99.90
20831;DHT22;10576;53.556;9.868;2023-09-08T11:47:43;28.20;99.90
20831;DHT22;10576;53.556;9.868;2023-09-08T11:50:09;28.20;99.90
20831;DHT22;10576;53.556;9.868;2023-09-08T11:52:37;28.40;99.90
20831;DHT22;10576;53.556;9.868;2023-09-08T11:55:02;28.50;99.90
20831;DHT22;10576;53.556;9.868;2023-09-08T11:57:28;28.50;99.90
20831;DHT22;10576;53.556;9.868;2023-09-08T11:59:54;28.60;99.90
20831;DHT22;10576;53.556;9.868;2023-09-08T12:02:19;28.50;99.90
20831;DHT22;10576;53.556;9.868;2023-09-08T12:04:45;28.50;99.90
20831;DHT22;10576;53.556;9.868;2023-09-08T12:07:14;28.60;99.90
20831;DHT22;10576;53.556;9.868;2023-09-08T12:09:44;28.90;99.90
20831;DHT22;10576;53.556;9.868;2023-09-08T12:12:11;29.00;99.90
20831;DHT22;10576;53.556;9.868;2023-09-08T12:14:40;29.00;99.90
20831;DHT22;10576;53.556;9.868;2023-09-08T12:17:07;29.10;99.90
20831;DHT22;10576;53.556;9.868;2023-09-08T12:19:33;29.10;99.90
20831;DHT22;10576;53.556;9.868;2023-09-08T12:22:02;29.10;99.90
20831;DHT22;10576;53.556;9.868;2023-09-08T12:24:47;29.10;99.90
20831;DHT22;10576;53.556;9.868;2023-09-08T12:27:16;29.20;99.90
20831;DHT22;10576;53.556;9.868;2023-09-08T12:32:23;29.40;99.90
20831;DHT22;10576;53.556;9.868;2023-09-08T12:34:48;29.40;99.90
20831;DHT22;10576;53.556;9.868;2023-09-08T12:37:14;29.40;99.90
20831;DHT22;10576;53.556;9.868;2023-09-08T12:39:39;29.40;99.90
20831;DHT22;10576;53.556;9.868;2023-09-08T12:42:05;29.40;99.90
20831;DHT22;10576;53.556;9.868;2023-09-08T12:44:31;29.30;99.90
20831;DHT22;10576;53.556;9.868;2023-09-08T12:46:56;29.30;99.90
20831;DHT22;10576;53.556;9.868;2023-09-08T12:49:22;29.20;99.90
20831;DHT22;10576;53.556;9.868;2023-09-08T12:51:47;29.20;99.90
20831;DHT22;10576;53.556;9.868;2023-09-08T12:54:13;29.20;99.90
20831;DHT22;10576;53.556;9.868;2023-09-08T12:56:38;29.40;99.90
20831;DHT22;10576;53.556;9.868;2023-09-08T12:59:04;29.10;99.90
20831;DHT22;10576;53.556;9.868;2023-09-08T13:01:29;29.20;99.90
20831;DHT22;10576;53.556;9.868;2023-09-08T13:03:55;29.40;99.90
20831;DHT22;10576;53.556;9.868;2023-09-08T13:06:20;29.40;99.90
20831;DHT22;10576;53.556;9.868;2023-09-08T13:08:46;29.40;99.90
20831;DHT22;10576;53.556;9.868;2023-09-08T13:11:11;29.20;99.90
20831;DHT22;10576;53.556;9.868;2023-09-08T13:13:37;29.20;99.90
20831;DHT22;10576;53.556;9.868;2023-09-08T13:16:02;29.20;99.90
20831;DHT22;10576;53.556;9.868;2023-09-08T13:18:28;29.20;99.90
20831;DHT22;10576;53.556;9.868;2023-09-08T13:20:54;29.20;99.90
20831;DHT22;10576;53.556;9.868;2023-09-08T13:23:19;29.10;99.90
20831;DHT22;10576;53.556;9.868;2023-09-08T13:25:45;29.00;99.90
20831;DHT22;10576;53.556;9.868;2023-09-08T13:28:11;28.90;99.90
20831;DHT22;10576;53.556;9.868;2023-09-08T13:30:37;29.10;99.90
20831;DHT22;10576;53.556;9.868;2023-09-08T13:33:02;29.00;99.90
20831;DHT22;10576;53.556;9.868;2023-09-08T13:35:28;29.00;99.90
20831;DHT22;10576;53.556;9.868;2023-09-08T13:37:53;28.90;99.90
20831;DHT22;10576;53.556;9.868;2023-09-08T13:40:19;28.90;99.90
20831;DHT22;10576;53.556;9.868;2023-09-08T13:42:44;28.90;99.90
20831;DHT22;10576;53.556;9.868;2023-09-08T13:45:10;28.80;99.90
20831;DHT22;10576;53.556;9.868;2023-09-08T13:47:36;28.60;99.90
20831;DHT22;10576;53.556;9.868;2023-09-08T13:50:03;28.70;99.90
20831;DHT22;10576;53.556;9.868;2023-09-08T13:52:28;28.60;99.90
20831;DHT22;10576;53.556;9.868;2023-09-08T13:54:54;28.50;99.90
20831;DHT22;10576;53.556;9.868;2023-09-08T13:57:19;28.50;99.90
20831;DHT22;10576;53.556;9.868;2023-09-08T13:59:46;28.50;99.90
20831;DHT22;10576;53.556;9.868;2023-09-08T14:02:11;28.50;99.90
20831;DHT22;10576;53.556;9.868;2023-09-08T14:04:37;28.30;99.90
20831;DHT22;10576;53.556;9.868;2023-09-08T14:07:05;28.30;99.90
20831;DHT22;10576;53.556;9.868;2023-09-08T14:09:30;28.40;99.90
20831;DHT22;10576;53.556;9.868;2023-09-08T14:11:56;28.20;99.90
20831;DHT22;10576;53.556;9.868;2023-09-08T14:14:21;28.10;99.90
20831;DHT22;10576;53.556;9.868;2023-09-08T14:16:47;28.20;99.90
20831;DHT22;10576;53.556;9.868;2023-09-08T14:19:12;28.20;99.90
20831;DHT22;10576;53.556;9.868;2023-09-08T14:21:38;28.10;99.90
20831;DHT22;10576;53.556;9.868;2023-09-08T14:24:05;27.90;99.90
20831;DHT22;10576;53.556;9.868;2023-09-08T14:26:30;27.90;99.90
20831;DHT22;10576;53.556;9.868;2023-09-08T14:28:56;27.90;99.90
20831;DHT22;10576;53.556;9.868;2023-09-08T14:31:22;27.90;99.90
20831;DHT22;10576;53.556;9.868;2023-09-08T14:33:47;27.90;99.90
20831;DHT22;10576;53.556;9.868;2023-09-08T14:36:19;27.90;99.90
20831;DHT22;10576;53.556;9.868;2023-09-08T14:38:45;27.80;99.90
20831;DHT22;10576;53.556;9.868;2023-09-08T14:41:10;27.80;99.90
20831;DHT22;10576;53.556;9.868;2023-09-08T14:43:36;27.80;99.90
20831;DHT22;10576;53.556;9.868;2023-09-08T14:46:01;27.80;99.90
20831;DHT22;10576;53.556;9.868;2023-09-08T14:48:28;27.70;99.90
20831;DHT22;10576;53.556;9.868;2023-09-08T14:50:55;27.70;99.90
20831;DHT22;10576;53.556;9.868;2023-09-08T14:53:20;27.60;99.90
20831;DHT22;10576;53.556;9.868;2023-09-08T14:55:46;27.50;99.90
20831;DHT22;10576;53.556;9.868;2023-09-08T14:58:16;27.50;99.90
20831;DHT22;10576;53.556;9.868;2023-09-08T15:00:42;27.50;99.90
20831;DHT22;10576;53.556;9.868;2023-09-08T15:03:08;27.50;99.90
20831;DHT22;10576;53.556;9.868;2023-09-08T15:05:34;27.40;99.90
20831;DHT22;10576;53.556;9.868;2023-09-08T15:08:00;27.40;99.90
20831;DHT22;10576;53.556;9.868;2023-09-08T15:10:25;27.40;99.90
20831;DHT22;10576;53.556;9.868;2023-09-08T15:12:51;27.40;99.90
20831;DHT22;10576;53.556;9.868;2023-09-08T15:15:17;27.40;99.90
20831;DHT22;10576;53.556;9.868;2023-09-08T15:17:54;27.40;99.90
20831;DHT22;10576;53.556;9.868;2023-09-08T15:20:20;27.30;99.90
20831;DHT22;10576;53.556;9.868;2023-09-08T15:22:46;27.20;99.90
20831;DHT22;10576;53.556;9.868;2023-09-08T15:25:12;27.30;99.90
20831;DHT22;10576;53.556;9.868;2023-09-08T15:27:38;25.70;99.90
20831;DHT22;10576;53.556;9.868;2023-09-08T15:30:04;27.10;99.90
20831;DHT22;10576;53.556;9.868;2023-09-08T15:32:30;27.20;99.90